sensor_id;sensor_type;location;lat;lon;timestamp;pressure;altitude;pressure_sealevel;temperature;humidity
55079;BME280;55187;49.496;6.010;2022-10-15T00:00:37;96688.47;;;12.33;100.00
55079;BME280;55187;49.496;6.010;2022-10-15T00:03:04;96684.44;;;12.31;100.00
55079;BME280;55187;49.496;6.010;2022-10-15T00:05:30;96700.75;;;12.28;100.00
55079;BME280;55187;49.496;6.010;2022-10-15T00:07:57;96704.00;;;12.30;100.00
55079;BME280;55187;49.496;6.010;2022-10-15T00:10:23;96702.63;;;12.27;100.00
55079;BME280;55187;49.496;6.010;2022-10-15T00:12:49;96703.22;;;12.29;100.00
55079;BME280;55187;49.496;6.010;2022-10-15T00:15:16;96706.66;;;12.30;100.00
55079;BME280;55187;49.496;6.010;2022-10-15T00:17:42;96706.66;;;12.30;100.00
55079;BME280;55187;49.496;6.010;2022-10-15T00:20:09;96710.13;;;12.30;100.00
55079;BME280;55187;49.496;6.010;2022-10-15T00:22:36;96714.28;;;12.26;100.00
55079;BME280;55187;49.496;6.010;2022-10-15T00:25:04;96725.44;;;12.28;100.00
55079;BME280;55187;49.496;6.010;2022-10-15T00:27:32;96720.59;;;12.25;100.00
55079;BME280;55187;49.496;6.010;2022-10-15T00:29:59;96732.41;;;12.29;100.00
55079;BME280;55187;49.496;6.010;2022-10-15T00:32:26;96721.41;;;12.26;100.00
55079;BME280;55187;49.496;6.010;2022-10-15T00:34:52;96714.09;;;12.21;100.00
55079;BME280;55187;49.496;6.010;2022-10-15T00:37:18;96716.53;;;12.23;100.00
55079;BME280;55187;49.496;6.010;2022-10-15T00:39:46;96717.19;;;12.18;100.00
55079;BME280;55187;49.496;6.010;2022-10-15T00:42:13;96718.59;;;12.21;100.00
55079;BME280;55187;49.496;6.010;2022-10-15T00:49:52;96717.56;;;12.22;100.00
55079;BME280;55187;49.496;6.010;2022-10-15T00:52:26;96723.91;;;12.21;100.00
55079;BME280;55187;49.496;6.010;2022-10-15T00:54:59;96736.22;;;12.15;100.00
55079;BME280;55187;49.496;6.010;2022-10-15T00:57:32;96732.06;;;12.19;100.00
55079;BME280;55187;49.496;6.010;2022-10-15T01:00:05;96735.75;;;12.18;100.00
55079;BME280;55187;49.496;6.010;2022-10-15T01:02:32;96735.47;;;12.08;100.00
55079;BME280;55187;49.496;6.010;2022-10-15T01:04:58;96732.50;;;12.16;100.00
55079;BME280;55187;49.496;6.010;2022-10-15T01:07:25;96740.91;;;12.13;100.00
55079;BME280;55187;49.496;6.010;2022-10-15T01:09:52;96741.97;;;12.05;100.00
55079;BME280;55187;49.496;6.010;2022-10-15T01:12:35;96747.94;;;12.01;100.00
55079;BME280;55187;49.496;6.010;2022-10-15T01:15:18;96738.53;;;12.05;100.00
55079;BME280;55187;49.496;6.010;2022-10-15T01:17:49;96738.97;;;12.02;100.00
55079;BME280;55187;49.496;6.010;2022-10-15T01:23:40;96737.91;;;12.03;100.00
55079;BME280;55187;49.496;6.010;2022-10-15T01:29:07;96735.72;;;12.00;100.00
55079;BME280;55187;49.496;6.010;2022-10-15T01:31:49;96736.81;;;11.92;100.00
55079;BME280;55187;49.496;6.010;2022-10-15T01:40:35;96747.78;;;11.95;100.00
55079;BME280;55187;49.496;6.010;2022-10-15T01:43:06;96740.41;;;11.98;100.00
55079;BME280;55187;49.496;6.010;2022-10-15T01:45:50;96747.19;;;11.93;100.00
55079;BME280;55187;49.496;6.010;2022-10-15T01:48:32;96754.31;;;11.93;100.00
55079;BME280;55187;49.496;6.010;2022-10-15T01:51:04;96749.47;;;11.90;100.00
55079;BME280;55187;49.496;6.010;2022-10-15T01:53:32;96747.19;;;11.93;100.00
55079;BME280;55187;49.496;6.010;2022-10-15T01:56:05;96753.13;;;11.89;100.00
55079;BME280;55187;49.496;6.010;2022-10-15T01:58:36;96752.50;;;11.87;100.00
55079;BME280;55187;49.496;6.010;2022-10-15T02:01:04;96758.84;;;11.86;100.00
55079;BME280;55187;49.496;6.010;2022-10-15T02:03:31;96749.91;;;11.80;100.00
55079;BME280;55187;49.496;6.010;2022-10-15T02:06:20;96762.56;;;11.78;100.00
55079;BME280;55187;49.496;6.010;2022-10-15T02:09:03;96755.03;;;11.75;100.00
55079;BME280;55187;49.496;6.010;2022-10-15T02:11:46;96751.38;;;11.76;100.00
55079;BME280;55187;49.496;6.010;2022-10-15T02:14:26;96744.44;;;11.75;100.00
55079;BME280;55187;49.496;6.010;2022-10-15T02:17:08;96742.00;;;11.73;100.00
55079;BME280;55187;49.496;6.010;2022-10-15T02:19:43;96752.63;;;11.73;100.00
55079;BME280;55187;49.496;6.010;2022-10-15T02:22:18;96744.88;;;11.72;100.00
55079;BME280;55187;49.496;6.010;2022-10-15T02:24:57;96740.41;;;11.66;100.00
55079;BME280;55187;49.496;6.010;2022-10-15T02:27:30;96744.28;;;11.70;100.00
55079;BME280;55187;49.496;6.010;2022-10-15T02:30:01;96740.81;;;11.69;100.00
55079;BME280;55187;49.496;6.010;2022-10-15T02:32:29;96736.72;;;11.73;100.00
55079;BME280;55187;49.496;6.010;2022-10-15T02:34:56;96741.06;;;11.61;100.00
55079;BME280;55187;49.496;6.010;2022-10-15T02:37:24;96745.31;;;11.69;100.00
55079;BME280;55187;49.496;6.010;2022-10-15T02:39:52;96745.31;;;11.69;100.00
55079;BME280;55187;49.496;6.010;2022-10-15T02:42:19;96744.91;;;11.65;100.00
55079;BME280;55187;49.496;6.010;2022-10-15T02:44:47;96748.97;;;11.68;100.00
55079;BME280;55187;49.496;6.010;2022-10-15T02:47:14;96754.28;;;11.68;100.00
55079;BME280;55187;49.496;6.010;2022-10-15T02:49:40;96750.22;;;11.65;100.00
55079;BME280;55187;49.496;6.010;2022-10-15T02:52:07;96752.66;;;11.67;100.00
55079;BME280;55187;49.496;6.010;2022-10-15T02:54:33;96755.13;;;11.62;100.00
55079;BME280;55187;49.496;6.010;2022-10-15T02:57:00;96764.59;;;11.51;100.00
55079;BME280;55187;49.496;6.010;2022-10-15T02:59:27;96755.59;;;11.52;100.00
55079;BME280;55187;49.496;6.010;2022-10-15T03:01:54;96755.19;;;11.55;100.00
55079;BME280;55187;49.496;6.010;2022-10-15T03:04:21;96759.91;;;11.46;100.00
55079;BME280;55187;49.496;6.010;2022-10-15T03:06:48;96761.31;;;11.49;100.00
55079;BME280;55187;49.496;6.010;2022-10-15T03:09:14;96764.41;;;11.46;100.00
55079;BME280;55187;49.496;6.010;2022-10-15T03:11:40;96760.13;;;11.45;100.00
55079;BME280;55187;49.496;6.010;2022-10-15T03:14:07;96761.16;;;11.44;100.00
55079;BME280;55187;49.496;6.010;2022-10-15T03:16:34;96752.81;;;11.40;100.00
55079;BME280;55187;49.496;6.010;2022-10-15T03:19:00;96762.63;;;11.33;100.00
55079;BME280;55187;49.496;6.010;2022-10-15T03:21:27;96762.59;;;11.40;100.00
55079;BME280;55187;49.496;6.010;2022-10-15T03:24:05;96750.38;;;11.39;100.00
55079;BME280;55187;49.496;6.010;2022-10-15T03:26:31;96740.81;;;11.38;100.00
55079;BME280;55187;49.496;6.010;2022-10-15T03:28:58;96736.16;;;11.33;100.00
55079;BME280;55187;49.496;6.010;2022-10-15T03:31:40;96751.88;;;11.28;100.00
55079;BME280;55187;49.496;6.010;2022-10-15T03:34:07;96751.00;;;11.34;100.00
55079;BME280;55187;49.496;6.010;2022-10-15T03:36:34;96733.94;;;11.30;100.00
55079;BME280;55187;49.496;6.010;2022-10-15T03:39:05;96735.16;;;11.27;100.00
55079;BME280;55187;49.496;6.010;2022-10-15T03:41:34;96731.09;;;11.25;100.00
55079;BME280;55187;49.496;6.010;2022-10-15T03:44:01;96725.78;;;11.25;100.00
55079;BME280;55187;49.496;6.010;2022-10-15T03:46:30;96727.88;;;11.23;100.00
55079;BME280;55187;49.496;6.010;2022-10-15T03:48:59;96730.91;;;11.20;100.00
55079;BME280;55187;49.496;6.010;2022-10-15T03:51:25;96743.56;;;11.18;100.00
55079;BME280;55187;49.496;6.010;2022-10-15T03:53:57;96751.13;;;11.14;100.00
55079;BME280;55187;49.496;6.010;2022-10-15T03:56:24;96753.59;;;11.09;100.00
55079;BME280;55187;49.496;6.010;2022-10-15T03:58:50;96757.69;;;11.05;100.00
55079;BME280;55187;49.496;6.010;2022-10-15T04:01:17;96750.13;;;11.08;100.00
55079;BME280;55187;49.496;6.010;2022-10-15T04:03:44;96750.53;;;11.12;100.00
55079;BME280;55187;49.496;6.010;2022-10-15T04:06:11;96754.41;;;11.09;100.00
55079;BME280;55187;49.496;6.010;2022-10-15T04:08:38;96760.16;;;11.00;100.00
55079;BME280;55187;49.496;6.010;2022-10-15T04:11:19;96772.97;;;11.03;100.00
55079;BME280;55187;49.496;6.010;2022-10-15T04:13:53;96776.63;;;11.02;100.00
55079;BME280;55187;49.496;6.010;2022-10-15T04:16:19;96769.72;;;10.94;100.00
55079;BME280;55187;49.496;6.010;2022-10-15T04:18:47;96772.97;;;10.96;100.00
55079;BME280;55187;49.496;6.010;2022-10-15T04:21:14;96769.53;;;10.96;100.00
55079;BME280;55187;49.496;6.010;2022-10-15T04:23:44;96773.41;;;11.00;100.00
55079;BME280;55187;49.496;6.010;2022-10-15T04:26:17;96780.72;;;10.98;100.00
55079;BME280;55187;49.496;6.010;2022-10-15T04:28:46;96777.47;;;10.96;100.00
55079;BME280;55187;49.496;6.010;2022-10-15T04:31:13;96776.88;;;10.94;100.00
55079;BME280;55187;49.496;6.010;2022-10-15T04:33:40;96770.94;;;10.98;100.00
55079;BME280;55187;49.496;6.010;2022-10-15T04:36:13;96775.22;;;10.92;100.00
55079;BME280;55187;49.496;6.010;2022-10-15T04:38:49;96767.88;;;10.95;100.00
55079;BME280;55187;49.496;6.010;2022-10-15T04:41:25;96757.31;;;10.88;100.00
55079;BME280;55187;49.496;6.010;2022-10-15T04:44:03;96757.72;;;10.91;100.00
55079;BME280;55187;49.496;6.010;2022-10-15T04:46:31;96753.66;;;10.89;100.00
55079;BME280;55187;49.496;6.010;2022-10-15T04:49:03;96759.13;;;10.94;100.00
55079;BME280;55187;49.496;6.010;2022-10-15T04:51:29;96754.47;;;10.89;100.00
55079;BME280;55187;49.496;6.010;2022-10-15T04:53:59;96757.53;;;10.93;100.00
55079;BME280;55187;49.496;6.010;2022-10-15T04:56:28;96763.44;;;10.95;100.00
55079;BME280;55187;49.496;6.010;2022-10-15T04:58:55;96762.00;;;10.92;100.00
55079;BME280;55187;49.496;6.010;2022-10-15T05:01:23;96776.25;;;10.91;100.00
55079;BME280;55187;49.496;6.010;2022-10-15T05:04:05;96774.41;;;10.92;100.00
55079;BME280;55187;49.496;6.010;2022-10-15T05:06:33;96769.34;;;10.90;100.00
55079;BME280;55187;49.496;6.010;2022-10-15T05:09:13;96778.13;;;10.84;100.00
55079;BME280;55187;49.496;6.010;2022-10-15T05:11:46;96777.09;;;10.85;100.00
55079;BME280;55187;49.496;6.010;2022-10-15T05:14:12;96783.38;;;10.98;100.00
55079;BME280;55187;49.496;6.010;2022-10-15T05:16:39;96786.03;;;10.98;100.00
55079;BME280;55187;49.496;6.010;2022-10-15T05:19:07;96784.00;;;10.93;100.00
55079;BME280;55187;49.496;6.010;2022-10-15T05:21:36;96779.09;;;10.97;100.00
55079;BME280;55187;49.496;6.010;2022-10-15T05:24:08;96778.47;;;10.95;100.00
55079;BME280;55187;49.496;6.010;2022-10-15T05:26:47;96774.22;;;10.94;100.00
55079;BME280;55187;49.496;6.010;2022-10-15T05:29:14;96772.81;;;10.91;100.00
55079;BME280;55187;49.496;6.010;2022-10-15T05:31:41;96769.53;;;10.96;100.00
55079;BME280;55187;49.496;6.010;2022-10-15T05:34:15;96765.69;;;10.85;100.00
55079;BME280;55187;49.496;6.010;2022-10-15T05:36:48;96770.75;;;10.93;100.00
55079;BME280;55187;49.496;6.010;2022-10-15T05:39:15;96765.25;;;10.88;100.00
55079;BME280;55187;49.496;6.010;2022-10-15T05:41:44;96760.38;;;10.91;100.00
55079;BME280;55187;49.496;6.010;2022-10-15T05:44:10;96765.88;;;10.90;100.00
55079;BME280;55187;49.496;6.010;2022-10-15T05:46:37;96765.88;;;10.83;100.00
55079;BME280;55187;49.496;6.010;2022-10-15T05:49:03;96767.09;;;10.87;100.00
55079;BME280;55187;49.496;6.010;2022-10-15T05:51:40;96766.72;;;10.84;100.00
55079;BME280;55187;49.496;6.010;2022-10-15T05:54:12;96770.56;;;10.88;100.00
55079;BME280;55187;49.496;6.010;2022-10-15T05:56:39;96768.34;;;10.85;100.00
55079;BME280;55187;49.496;6.010;2022-10-15T05:59:05;96769.38;;;10.77;100.00
55079;BME280;55187;49.496;6.010;2022-10-15T06:01:32;96767.97;;;10.81;100.00
55079;BME280;55187;49.496;6.010;2022-10-15T06:03:58;96766.91;;;10.89;100.00
55079;BME280;55187;49.496;6.010;2022-10-15T06:06:25;96767.69;;;10.96;100.00
55079;BME280;55187;49.496;6.010;2022-10-15T06:08:52;96762.19;;;10.98;100.00
55079;BME280;55187;49.496;6.010;2022-10-15T06:11:20;96767.91;;;10.88;100.00
55079;BME280;55187;49.496;6.010;2022-10-15T06:13:46;96772.19;;;10.96;100.00
55079;BME280;55187;49.496;6.010;2022-10-15T06:16:14;96775.44;;;10.91;100.00
55079;BME280;55187;49.496;6.010;2022-10-15T06:18:42;96777.66;;;11.01;100.00
55079;BME280;55187;49.496;6.010;2022-10-15T06:21:09;96781.34;;;11.00;100.00
55079;BME280;55187;49.496;6.010;2022-10-15T06:23:36;96773.34;;;11.06;100.00
55079;BME280;55187;49.496;6.010;2022-10-15T06:26:03;96775.44;;;10.91;100.00
55079;BME280;55187;49.496;6.010;2022-10-15T06:28:31;96775.00;;;11.01;100.00
55079;BME280;55187;49.496;6.010;2022-10-15T06:30:58;96774.97;;;11.14;100.00
55079;BME280;55187;49.496;6.010;2022-10-15T06:33:29;96786.19;;;11.09;100.00
55079;BME280;55187;49.496;6.010;2022-10-15T06:36:00;96793.34;;;11.02;100.00
55079;BME280;55187;49.496;6.010;2022-10-15T06:38:27;96790.25;;;11.05;100.00
55079;BME280;55187;49.496;6.010;2022-10-15T06:40:54;96785.94;;;11.11;100.00
55079;BME280;55187;49.496;6.010;2022-10-15T06:43:21;96788.81;;;11.16;100.00
55079;BME280;55187;49.496;6.010;2022-10-15T06:45:47;96785.53;;;11.21;100.00
55079;BME280;55187;49.496;6.010;2022-10-15T06:48:33;96773.13;;;11.08;100.00
55079;BME280;55187;49.496;6.010;2022-10-15T06:51:02;96785.69;;;11.26;100.00
55079;BME280;55187;49.496;6.010;2022-10-15T06:53:29;96784.25;;;11.30;100.00
55079;BME280;55187;49.496;6.010;2022-10-15T06:55:57;96786.91;;;11.30;100.00
55079;BME280;55187;49.496;6.010;2022-10-15T06:58:24;96788.91;;;11.41;100.00
55079;BME280;55187;49.496;6.010;2022-10-15T07:00:50;96784.78;;;11.45;100.00
55079;BME280;55187;49.496;6.010;2022-10-15T07:03:16;96785.38;;;11.47;100.00
55079;BME280;55187;49.496;6.010;2022-10-15T07:05:43;96784.78;;;11.45;100.00
55079;BME280;55187;49.496;6.010;2022-10-15T07:08:09;96784.56;;;11.47;100.00
55079;BME280;55187;49.496;6.010;2022-10-15T07:10:36;96776.97;;;11.57;100.00
55079;BME280;55187;49.496;6.010;2022-10-15T07:13:02;96783.47;;;11.61;100.00
55079;BME280;55187;49.496;6.010;2022-10-15T07:15:29;96786.16;;;11.54;100.00
55079;BME280;55187;49.496;6.010;2022-10-15T07:17:55;96779.38;;;11.65;100.00
55079;BME280;55187;49.496;6.010;2022-10-15T07:20:28;96786.91;;;11.62;100.00
55079;BME280;55187;49.496;6.010;2022-10-15T07:22:58;96777.88;;;11.76;100.00
55079;BME280;55187;49.496;6.010;2022-10-15T07:25:28;96775.84;;;11.78;100.00
55079;BME280;55187;49.496;6.010;2022-10-15T07:27:56;96785.19;;;11.81;100.00
55079;BME280;55187;49.496;6.010;2022-10-15T07:30:23;96783.34;;;11.81;100.00
55079;BME280;55187;49.496;6.010;2022-10-15T07:32:54;96787.84;;;11.87;100.00
55079;BME280;55187;49.496;6.010;2022-10-15T07:35:21;96782.47;;;11.94;100.00
55079;BME280;55187;49.496;6.010;2022-10-15T07:37:47;96780.53;;;12.08;100.00
55079;BME280;55187;49.496;6.010;2022-10-15T07:40:16;96786.38;;;12.16;100.00
55079;BME280;55187;49.496;6.010;2022-10-15T07:42:43;96782.06;;;12.22;100.00
55079;BME280;55187;49.496;6.010;2022-10-15T07:45:10;96787.00;;;12.37;100.00
55079;BME280;55187;49.496;6.010;2022-10-15T07:47:39;96792.13;;;12.57;100.00
55079;BME280;55187;49.496;6.010;2022-10-15T07:50:05;96780.34;;;12.90;100.00
55079;BME280;55187;49.496;6.010;2022-10-15T07:52:31;96786.84;;;13.12;100.00
55079;BME280;55187;49.496;6.010;2022-10-15T07:54:58;96779.25;;;13.16;100.00
55079;BME280;55187;49.496;6.010;2022-10-15T07:57:24;96787.13;;;12.86;100.00
55079;BME280;55187;49.496;6.010;2022-10-15T07:59:50;96786.19;;;12.80;100.00
55079;BME280;55187;49.496;6.010;2022-10-15T08:02:17;96782.00;;;12.72;100.00
55079;BME280;55187;49.496;6.010;2022-10-15T08:04:44;96779.34;;;12.72;100.00
55079;BME280;55187;49.496;6.010;2022-10-15T08:07:10;96779.81;;;12.63;100.00
55079;BME280;55187;49.496;6.010;2022-10-15T08:09:37;96778.56;;;12.65;100.00
55079;BME280;55187;49.496;6.010;2022-10-15T08:12:03;96774.91;;;12.66;100.00
55079;BME280;55187;49.496;6.010;2022-10-15T08:14:35;96774.16;;;12.77;100.00
55079;BME280;55187;49.496;6.010;2022-10-15T08:17:03;96779.09;;;12.92;100.00
55079;BME280;55187;49.496;6.010;2022-10-15T08:19:30;96779.56;;;12.89;100.00
55079;BME280;55187;49.496;6.010;2022-10-15T08:21:56;96775.56;;;12.98;100.00
55079;BME280;55187;49.496;6.010;2022-10-15T08:24:23;96765.59;;;12.94;100.00
55079;BME280;55187;49.496;6.010;2022-10-15T08:26:49;96771.72;;;13.13;100.00
55079;BME280;55187;49.496;6.010;2022-10-15T08:29:16;96768.47;;;13.11;100.00
55079;BME280;55187;49.496;6.010;2022-10-15T08:31:43;96778.34;;;13.22;100.00
55079;BME280;55187;49.496;6.010;2022-10-15T08:34:09;96769.06;;;13.13;100.00
55079;BME280;55187;49.496;6.010;2022-10-15T08:36:36;96774.50;;;13.18;100.00
55079;BME280;55187;49.496;6.010;2022-10-15T08:39:02;96772.91;;;13.17;100.00
55079;BME280;55187;49.496;6.010;2022-10-15T08:41:36;96767.13;;;13.20;100.00
55079;BME280;55187;49.496;6.010;2022-10-15T08:44:04;96761.16;;;13.06;100.00
55079;BME280;55187;49.496;6.010;2022-10-15T08:46:41;96768.03;;;13.14;100.00
55079;BME280;55187;49.496;6.010;2022-10-15T08:49:25;96766.53;;;13.18;100.00
55079;BME280;55187;49.496;6.010;2022-10-15T08:51:57;96768.09;;;13.26;100.00
55079;BME280;55187;49.496;6.010;2022-10-15T08:54:30;96771.13;;;13.29;100.00
55079;BME280;55187;49.496;6.010;2022-10-15T08:57:12;96773.84;;;13.22;100.00
55079;BME280;55187;49.496;6.010;2022-10-15T09:00:02;96768.97;;;13.38;100.00
55079;BME280;55187;49.496;6.010;2022-10-15T09:02:44;96765.88;;;13.22;100.00
55079;BME280;55187;49.496;6.010;2022-10-15T09:08:30;96760.28;;;13.31;100.00
55079;BME280;55187;49.496;6.010;2022-10-15T09:11:10;96757.34;;;13.20;100.00
55079;BME280;55187;49.496;6.010;2022-10-15T09:13:40;96760.78;;;13.21;100.00
55079;BME280;55187;49.496;6.010;2022-10-15T09:16:13;96762.84;;;13.19;100.00
55079;BME280;55187;49.496;6.010;2022-10-15T09:18:45;96764.91;;;13.17;100.00
55079;BME280;55187;49.496;6.010;2022-10-15T09:21:12;96762.84;;;13.19;100.00
55079;BME280;55187;49.496;6.010;2022-10-15T09:23:40;96770.09;;;13.12;100.00
55079;BME280;55187;49.496;6.010;2022-10-15T09:26:26;96760.28;;;13.12;100.00
55079;BME280;55187;49.496;6.010;2022-10-15T09:32:16;96775.38;;;13.49;100.00
55079;BME280;55187;49.496;6.010;2022-10-15T09:37:49;96772.72;;;13.49;100.00
55079;BME280;55187;49.496;6.010;2022-10-15T09:43:12;96772.22;;;13.40;100.00
55079;BME280;55187;49.496;6.010;2022-10-15T09:45:41;96776.44;;;13.29;100.00
55079;BME280;55187;49.496;6.010;2022-10-15T09:48:14;96776.34;;;13.36;100.00
55079;BME280;55187;49.496;6.010;2022-10-15T09:50:47;96779.44;;;13.51;100.00
55079;BME280;55187;49.496;6.010;2022-10-15T09:53:50;96786.72;;;13.56;100.00
55079;BME280;55187;49.496;6.010;2022-10-15T09:56:17;96786.41;;;13.34;100.00
55079;BME280;55187;49.496;6.010;2022-10-15T09:58:51;96776.69;;;13.28;100.00
55079;BME280;55187;49.496;6.010;2022-10-15T10:01:21;96781.47;;;13.37;100.00
55079;BME280;55187;49.496;6.010;2022-10-15T10:04:09;96786.22;;;13.47;100.00
55079;BME280;55187;49.496;6.010;2022-10-15T10:06:51;96782.72;;;13.35;100.00
55079;BME280;55187;49.496;6.010;2022-10-15T10:09:27;96783.75;;;13.34;100.00
55079;BME280;55187;49.496;6.010;2022-10-15T10:12:01;96793.88;;;13.43;100.00
55079;BME280;55187;49.496;6.010;2022-10-15T10:14:35;96793.69;;;13.38;100.00
55079;BME280;55187;49.496;6.010;2022-10-15T10:17:17;96795.41;;;13.33;100.00
55079;BME280;55187;49.496;6.010;2022-10-15T10:20:01;96800.66;;;13.39;100.00
55079;BME280;55187;49.496;6.010;2022-10-15T10:22:27;96798.94;;;13.45;100.00
55079;BME280;55187;49.496;6.010;2022-10-15T10:24:54;96798.06;;;13.33;100.00
55079;BME280;55187;49.496;6.010;2022-10-15T10:27:23;96800.94;;;13.31;100.00
55079;BME280;55187;49.496;6.010;2022-10-15T10:29:59;96800.06;;;13.37;100.00
55079;BME280;55187;49.496;6.010;2022-10-15T10:32:30;96788.66;;;13.49;100.00
55079;BME280;55187;49.496;6.010;2022-10-15T10:34:59;96807.88;;;13.51;100.00
55079;BME280;55187;49.496;6.010;2022-10-15T10:37:26;96801.97;;;13.49;100.00
55079;BME280;55187;49.496;6.010;2022-10-15T10:39:57;96795.97;;;13.53;100.00
55079;BME280;55187;49.496;6.010;2022-10-15T10:42:33;96794.56;;;13.81;100.00
55079;BME280;55187;49.496;6.010;2022-10-15T10:45:16;96807.78;;;13.88;100.00
55079;BME280;55187;49.496;6.010;2022-10-15T10:47:44;96799.84;;;13.69;100.00
55079;BME280;55187;49.496;6.010;2022-10-15T10:50:29;96806.50;;;13.90;100.00
55079;BME280;55187;49.496;6.010;2022-10-15T10:52:56;96804.88;;;13.89;100.00
55079;BME280;55187;49.496;6.010;2022-10-15T10:55:36;96814.34;;;13.85;100.00
55079;BME280;55187;49.496;6.010;2022-10-15T10:58:08;96797.88;;;13.64;100.00
55079;BME280;55187;49.496;6.010;2022-10-15T11:00:43;96804.34;;;13.69;100.00
55079;BME280;55187;49.496;6.010;2022-10-15T11:06:34;96805.97;;;13.70;100.00
55079;BME280;55187;49.496;6.010;2022-10-15T11:12:06;96802.97;;;13.78;100.00
55079;BME280;55187;49.496;6.010;2022-10-15T11:14:55;96806.13;;;13.87;100.00
55079;BME280;55187;49.496;6.010;2022-10-15T11:17:53;96799.50;;;13.77;100.00
55079;BME280;55187;49.496;6.010;2022-10-15T11:20:32;96798.81;;;13.70;100.00
55079;BME280;55187;49.496;6.010;2022-10-15T11:23:17;96793.19;;;13.78;100.00
55079;BME280;55187;49.496;6.010;2022-10-15T11:25:56;96798.63;;;13.83;100.00
55079;BME280;55187;49.496;6.010;2022-10-15T11:32:09;96797.56;;;13.84;100.00
55079;BME280;55187;49.496;6.010;2022-10-15T11:35:05;96813.31;;;13.86;100.00
55079;BME280;55187;49.496;6.010;2022-10-15T11:40:38;96795.09;;;14.01;100.00
55079;BME280;55187;49.496;6.010;2022-10-15T11:46:10;96803.66;;;14.03;100.00
55079;BME280;55187;49.496;6.010;2022-10-15T11:51:55;96808.03;;;14.10;100.00
55079;BME280;55187;49.496;6.010;2022-10-15T11:54:39;96807.91;;;14.04;100.00
55079;BME280;55187;49.496;6.010;2022-10-15T11:57:14;96804.06;;;13.89;100.00
55079;BME280;55187;49.496;6.010;2022-10-15T11:59:48;96787.88;;;13.90;100.00
55079;BME280;55187;49.496;6.010;2022-10-15T12:02:23;96797.84;;;13.95;100.00
55079;BME280;55187;49.496;6.010;2022-10-15T12:07:39;96790.78;;;14.00;100.00
55079;BME280;55187;49.496;6.010;2022-10-15T12:13:05;96789.75;;;14.01;100.00
55079;BME280;55187;49.496;6.010;2022-10-15T12:15:41;96789.69;;;14.20;100.00
55079;BME280;55187;49.496;6.010;2022-10-15T12:21:01;96792.44;;;14.25;100.00
55079;BME280;55187;49.496;6.010;2022-10-15T12:23:40;96782.28;;;14.22;100.00
55079;BME280;55187;49.496;6.010;2022-10-15T12:26:30;96776.38;;;14.32;100.00
55079;BME280;55187;49.496;6.010;2022-10-15T12:29:02;96767.13;;;14.58;100.00
55079;BME280;55187;49.496;6.010;2022-10-15T12:31:42;96779.75;;;14.62;100.00
55079;BME280;55187;49.496;6.010;2022-10-15T12:34:31;96777.69;;;14.64;100.00
55079;BME280;55187;49.496;6.010;2022-10-15T12:37:15;96780.44;;;14.46;100.00
55079;BME280;55187;49.496;6.010;2022-10-15T12:39:42;96777.66;;;14.53;100.00
55079;BME280;55187;49.496;6.010;2022-10-15T12:42:34;96788.31;;;14.53;100.00
55079;BME280;55187;49.496;6.010;2022-10-15T12:45:04;96784.28;;;14.62;100.00
55079;BME280;55187;49.496;6.010;2022-10-15T12:47:48;96786.06;;;14.26;100.00
55079;BME280;55187;49.496;6.010;2022-10-15T12:50:23;96780.75;;;14.14;100.00
55079;BME280;55187;49.496;6.010;2022-10-15T12:52:59;96772.19;;;14.24;100.00
55079;BME280;55187;49.496;6.010;2022-10-15T12:55:37;96764.56;;;14.27;100.00
55079;BME280;55187;49.496;6.010;2022-10-15T13:00:55;96779.63;;;14.34;100.00
55079;BME280;55187;49.496;6.010;2022-10-15T13:03:32;96771.38;;;14.12;100.00
55079;BME280;55187;49.496;6.010;2022-10-15T13:06:12;96766.97;;;14.05;100.00
55079;BME280;55187;49.496;6.010;2022-10-15T13:08:43;96773.91;;;14.06;100.00
55079;BME280;55187;49.496;6.010;2022-10-15T13:14:47;96778.56;;;14.11;100.00
55079;BME280;55187;49.496;6.010;2022-10-15T13:17:29;96784.78;;;14.17;100.00
55079;BME280;55187;49.496;6.010;2022-10-15T13:20:01;96779.03;;;14.08;100.00
55079;BME280;55187;49.496;6.010;2022-10-15T13:22:35;96772.88;;;14.07;100.00
55079;BME280;55187;49.496;6.010;2022-10-15T13:25:02;96775.41;;;14.14;100.00
55079;BME280;55187;49.496;6.010;2022-10-15T13:27:31;96759.25;;;14.39;100.00
55079;BME280;55187;49.496;6.010;2022-10-15T13:30:00;96762.00;;;14.33;100.00
55079;BME280;55187;49.496;6.010;2022-10-15T13:32:30;96762.81;;;14.21;100.00
55079;BME280;55187;49.496;6.010;2022-10-15T13:34:58;96770.38;;;14.36;100.00
55079;BME280;55187;49.496;6.010;2022-10-15T13:37:30;96770.81;;;14.33;100.00
55079;BME280;55187;49.496;6.010;2022-10-15T13:39:58;96759.00;;;14.17;100.00
55079;BME280;55187;49.496;6.010;2022-10-15T13:42:25;96768.38;;;14.08;100.00
55079;BME280;55187;49.496;6.010;2022-10-15T13:45:15;96767.09;;;14.11;100.00
55079;BME280;55187;49.496;6.010;2022-10-15T13:47:50;96757.94;;;14.06;100.00
55079;BME280;55187;49.496;6.010;2022-10-15T13:50:26;96768.91;;;13.98;100.00
55079;BME280;55187;49.496;6.010;2022-10-15T13:53:08;96766.59;;;13.90;100.00
55079;BME280;55187;49.496;6.010;2022-10-15T13:55:38;96766.50;;;13.97;100.00
55079;BME280;55187;49.496;6.010;2022-10-15T13:58:23;96763.38;;;14.12;100.00
55079;BME280;55187;49.496;6.010;2022-10-15T14:01:00;96746.25;;;14.07;100.00
55079;BME280;55187;49.496;6.010;2022-10-15T14:03:30;96741.31;;;14.11;100.00
55079;BME280;55187;49.496;6.010;2022-10-15T14:06:10;96749.97;;;14.06;100.00
55079;BME280;55187;49.496;6.010;2022-10-15T14:08:41;96749.88;;;14.13;100.00
55079;BME280;55187;49.496;6.010;2022-10-15T14:11:11;96742.22;;;14.28;100.00
55079;BME280;55187;49.496;6.010;2022-10-15T14:13:45;96746.75;;;14.52;100.00
55079;BME280;55187;49.496;6.010;2022-10-15T14:16:20;96752.63;;;14.54;100.00